Santa Clarita, California
Current Conditions -  °F | °C
As of 2:51 AM on Wednesday 22 Oct 2014 (Local Time) from KVNY Reporting Station
Clear Clear  
Wind Chill: 60°   Ceiling: Unl
Heat Index: 60°   Visibility: 10mi
Dew Point: 49°   Wind: 3mph
Humidity: 67%   Direction: NA
Pressure: 29.89"   Gusts: NA
Location:  34.41°N, 118.55°W
Report Text: KVNY 220951Z VRB03KT 10SM CLR 16/09 A2989 RMK AO2 SLP112 T01560094
Loading
Personal Weather Stations






























Interactive Weather Map
Tropical Storm Tracking
New forecast layout! Learn more

10-Day Weather Forecast

Advertisements
Track Severe Weather on mobile